sensor_id;sensor_type;location;lat;lon;timestamp;P1;durP1;ratioP1;P2;durP2;ratioP2
69005;SDS011;56061;51.748;19.620;2022-07-10T00:00:13;7.30;;;3.50;;
69005;SDS011;56061;51.748;19.620;2022-07-10T00:02:42;5.50;;;2.70;;
69005;SDS011;56061;51.748;19.620;2022-07-10T00:05:10;4.60;;;2.30;;
69005;SDS011;56061;51.748;19.620;2022-07-10T00:07:45;4.60;;;2.20;;
69005;SDS011;56061;51.748;19.620;2022-07-10T00:10:13;5.70;;;2.50;;
69005;SDS011;56061;51.748;19.620;2022-07-10T00:12:40;5.30;;;2.50;;
69005;SDS011;56061;51.748;19.620;2022-07-10T00:15:07;5.70;;;2.50;;
69005;SDS011;56061;51.748;19.620;2022-07-10T00:17:34;5.90;;;2.40;;
69005;SDS011;56061;51.748;19.620;2022-07-10T00:20:03;5.40;;;2.60;;
69005;SDS011;56061;51.748;19.620;2022-07-10T00:22:30;5.60;;;2.30;;
69005;SDS011;56061;51.748;19.620;2022-07-10T00:24:56;7.10;;;2.60;;
69005;SDS011;56061;51.748;19.620;2022-07-10T00:27:23;6.20;;;2.60;;
69005;SDS011;56061;51.748;19.620;2022-07-10T00:29:50;6.70;;;2.80;;
69005;SDS011;56061;51.748;19.620;2022-07-10T00:32:16;5.90;;;2.90;;
69005;SDS011;56061;51.748;19.620;2022-07-10T00:34:43;6.60;;;3.00;;
69005;SDS011;56061;51.748;19.620;2022-07-10T00:37:09;5.00;;;2.90;;
69005;SDS011;56061;51.748;19.620;2022-07-10T00:39:37;7.00;;;2.80;;
69005;SDS011;56061;51.748;19.620;2022-07-10T00:42:11;7.00;;;2.90;;
69005;SDS011;56061;51.748;19.620;2022-07-10T00:44:43;5.90;;;3.10;;
69005;SDS011;56061;51.748;19.620;2022-07-10T00:47:10;7.50;;;3.20;;
69005;SDS011;56061;51.748;19.620;2022-07-10T00:49:38;6.20;;;3.10;;
69005;SDS011;56061;51.748;19.620;2022-07-10T00:52:11;6.80;;;3.40;;
69005;SDS011;56061;51.748;19.620;2022-07-10T00:54:43;7.60;;;3.30;;
69005;SDS011;56061;51.748;19.620;2022-07-10T00:57:12;7.10;;;3.40;;
69005;SDS011;56061;51.748;19.620;2022-07-10T00:59:44;7.00;;;3.40;;
69005;SDS011;56061;51.748;19.620;2022-07-10T01:02:13;7.30;;;3.70;;
69005;SDS011;56061;51.748;19.620;2022-07-10T01:04:42;7.10;;;3.40;;
69005;SDS011;56061;51.748;19.620;2022-07-10T01:07:09;6.60;;;3.90;;
69005;SDS011;56061;51.748;19.620;2022-07-10T01:09:37;7.70;;;4.90;;
69005;SDS011;56061;51.748;19.620;2022-07-10T01:12:04;8.90;;;5.30;;
69005;SDS011;56061;51.748;19.620;2022-07-10T01:14:31;8.20;;;5.20;;
69005;SDS011;56061;51.748;19.620;2022-07-10T01:16:58;8.40;;;5.20;;
69005;SDS011;56061;51.748;19.620;2022-07-10T01:19:25;9.10;;;5.30;;
69005;SDS011;56061;51.748;19.620;2022-07-10T01:21:52;8.10;;;4.80;;
69005;SDS011;56061;51.748;19.620;2022-07-10T01:24:20;8.30;;;5.30;;
69005;SDS011;56061;51.748;19.620;2022-07-10T01:26:46;9.10;;;5.00;;
69005;SDS011;56061;51.748;19.620;2022-07-10T01:29:13;8.00;;;4.80;;
69005;SDS011;56061;51.748;19.620;2022-07-10T01:31:40;8.90;;;5.50;;
69005;SDS011;56061;51.748;19.620;2022-07-10T01:34:08;9.20;;;5.10;;
69005;SDS011;56061;51.748;19.620;2022-07-10T01:36:36;9.80;;;4.90;;
69005;SDS011;56061;51.748;19.620;2022-07-10T01:39:05;9.50;;;5.10;;
69005;SDS011;56061;51.748;19.620;2022-07-10T01:41:33;10.80;;;5.70;;
69005;SDS011;56061;51.748;19.620;2022-07-10T01:44:00;10.00;;;5.40;;
69005;SDS011;56061;51.748;19.620;2022-07-10T01:46:27;9.60;;;5.10;;
69005;SDS011;56061;51.748;19.620;2022-07-10T01:48:54;9.60;;;5.30;;
69005;SDS011;56061;51.748;19.620;2022-07-10T01:51:21;8.70;;;4.90;;
69005;SDS011;56061;51.748;19.620;2022-07-10T01:53:48;8.80;;;5.00;;
69005;SDS011;56061;51.748;19.620;2022-07-10T01:56:15;8.30;;;4.80;;
69005;SDS011;56061;51.748;19.620;2022-07-10T01:58:42;7.70;;;4.00;;
69005;SDS011;56061;51.748;19.620;2022-07-10T02:01:10;11.80;;;4.60;;
69005;SDS011;56061;51.748;19.620;2022-07-10T02:03:38;8.70;;;3.90;;
69005;SDS011;56061;51.748;19.620;2022-07-10T02:06:23;6.60;;;3.70;;
69005;SDS011;56061;51.748;19.620;2022-07-10T02:08:50;9.10;;;3.60;;
69005;SDS011;56061;51.748;19.620;2022-07-10T02:11:22;7.40;;;3.60;;
69005;SDS011;56061;51.748;19.620;2022-07-10T02:13:48;6.60;;;3.20;;
69005;SDS011;56061;51.748;19.620;2022-07-10T02:16:15;6.60;;;3.10;;
69005;SDS011;56061;51.748;19.620;2022-07-10T02:18:42;6.90;;;3.10;;
69005;SDS011;56061;51.748;19.620;2022-07-10T02:21:09;6.20;;;3.20;;
69005;SDS011;56061;51.748;19.620;2022-07-10T02:23:36;10.80;;;3.40;;
69005;SDS011;56061;51.748;19.620;2022-07-10T02:26:02;5.80;;;3.10;;
69005;SDS011;56061;51.748;19.620;2022-07-10T02:28:29;6.60;;;3.20;;
69005;SDS011;56061;51.748;19.620;2022-07-10T02:30:56;6.10;;;3.20;;
69005;SDS011;56061;51.748;19.620;2022-07-10T02:33:23;6.00;;;3.10;;
69005;SDS011;56061;51.748;19.620;2022-07-10T02:35:50;5.70;;;2.70;;
69005;SDS011;56061;51.748;19.620;2022-07-10T02:38:17;5.80;;;3.00;;
69005;SDS011;56061;51.748;19.620;2022-07-10T02:40:44;8.50;;;3.40;;
69005;SDS011;56061;51.748;19.620;2022-07-10T02:43:10;7.20;;;3.10;;
69005;SDS011;56061;51.748;19.620;2022-07-10T02:45:37;7.00;;;3.20;;
69005;SDS011;56061;51.748;19.620;2022-07-10T02:48:11;6.40;;;2.90;;
69005;SDS011;56061;51.748;19.620;2022-07-10T02:50:38;6.10;;;2.90;;
69005;SDS011;56061;51.748;19.620;2022-07-10T02:53:04;6.50;;;3.00;;
69005;SDS011;56061;51.748;19.620;2022-07-10T02:55:31;6.60;;;3.10;;
69005;SDS011;56061;51.748;19.620;2022-07-10T02:57:58;6.10;;;2.70;;
69005;SDS011;56061;51.748;19.620;2022-07-10T03:00:26;6.00;;;2.70;;
69005;SDS011;56061;51.748;19.620;2022-07-10T03:02:54;6.90;;;2.90;;
69005;SDS011;56061;51.748;19.620;2022-07-10T03:05:22;5.80;;;2.70;;
69005;SDS011;56061;51.748;19.620;2022-07-10T03:07:49;5.90;;;2.50;;
69005;SDS011;56061;51.748;19.620;2022-07-10T03:10:16;5.80;;;3.20;;
69005;SDS011;56061;51.748;19.620;2022-07-10T03:12:42;6.10;;;2.40;;
69005;SDS011;56061;51.748;19.620;2022-07-10T03:15:10;6.60;;;2.50;;
69005;SDS011;56061;51.748;19.620;2022-07-10T03:17:37;5.70;;;2.40;;
69005;SDS011;56061;51.748;19.620;2022-07-10T03:20:04;6.10;;;2.20;;
69005;SDS011;56061;51.748;19.620;2022-07-10T03:22:32;4.50;;;2.10;;
69005;SDS011;56061;51.748;19.620;2022-07-10T03:24:59;7.40;;;2.10;;
69005;SDS011;56061;51.748;19.620;2022-07-10T03:27:25;5.30;;;2.30;;
69005;SDS011;56061;51.748;19.620;2022-07-10T03:29:52;6.00;;;2.20;;
69005;SDS011;56061;51.748;19.620;2022-07-10T03:32:18;6.60;;;2.40;;
69005;SDS011;56061;51.748;19.620;2022-07-10T03:34:45;5.60;;;2.10;;
69005;SDS011;56061;51.748;19.620;2022-07-10T03:37:11;7.00;;;2.40;;
69005;SDS011;56061;51.748;19.620;2022-07-10T03:39:38;6.80;;;2.20;;
69005;SDS011;56061;51.748;19.620;2022-07-10T03:42:05;4.40;;;2.00;;
69005;SDS011;56061;51.748;19.620;2022-07-10T03:44:32;5.90;;;2.40;;
69005;SDS011;56061;51.748;19.620;2022-07-10T03:46:59;5.00;;;2.30;;
69005;SDS011;56061;51.748;19.620;2022-07-10T03:49:26;6.40;;;2.10;;
69005;SDS011;56061;51.748;19.620;2022-07-10T03:51:53;5.60;;;2.10;;
69005;SDS011;56061;51.748;19.620;2022-07-10T03:54:20;7.00;;;2.10;;
69005;SDS011;56061;51.748;19.620;2022-07-10T03:56:46;5.80;;;2.30;;
69005;SDS011;56061;51.748;19.620;2022-07-10T03:59:31;5.20;;;2.80;;
69005;SDS011;56061;51.748;19.620;2022-07-10T04:01:58;5.20;;;2.70;;
69005;SDS011;56061;51.748;19.620;2022-07-10T04:04:24;5.90;;;2.80;;
69005;SDS011;56061;51.748;19.620;2022-07-10T04:06:51;5.30;;;2.90;;
69005;SDS011;56061;51.748;19.620;2022-07-10T04:09:18;5.30;;;3.00;;
69005;SDS011;56061;51.748;19.620;2022-07-10T04:11:44;7.00;;;3.10;;
69005;SDS011;56061;51.748;19.620;2022-07-10T04:14:11;7.70;;;3.20;;
69005;SDS011;56061;51.748;19.620;2022-07-10T04:16:37;6.90;;;3.00;;
69005;SDS011;56061;51.748;19.620;2022-07-10T04:19:04;6.20;;;2.60;;
69005;SDS011;56061;51.748;19.620;2022-07-10T04:21:31;5.10;;;2.60;;
69005;SDS011;56061;51.748;19.620;2022-07-10T04:23:57;6.50;;;2.80;;
69005;SDS011;56061;51.748;19.620;2022-07-10T04:26:27;5.00;;;2.70;;
69005;SDS011;56061;51.748;19.620;2022-07-10T04:28:54;7.20;;;2.70;;
69005;SDS011;56061;51.748;19.620;2022-07-10T04:31:20;6.10;;;2.50;;
69005;SDS011;56061;51.748;19.620;2022-07-10T04:33:47;7.00;;;2.60;;
69005;SDS011;56061;51.748;19.620;2022-07-10T04:36:14;5.60;;;2.80;;
69005;SDS011;56061;51.748;19.620;2022-07-10T04:38:41;5.70;;;2.90;;
69005;SDS011;56061;51.748;19.620;2022-07-10T04:41:07;4.60;;;2.40;;
69005;SDS011;56061;51.748;19.620;2022-07-10T04:43:34;4.20;;;2.30;;
69005;SDS011;56061;51.748;19.620;2022-07-10T04:46:00;5.40;;;2.20;;
69005;SDS011;56061;51.748;19.620;2022-07-10T04:48:27;6.10;;;2.60;;
69005;SDS011;56061;51.748;19.620;2022-07-10T04:50:54;5.60;;;2.40;;
69005;SDS011;56061;51.748;19.620;2022-07-10T04:53:20;7.20;;;2.20;;
69005;SDS011;56061;51.748;19.620;2022-07-10T04:55:47;6.30;;;2.50;;
69005;SDS011;56061;51.748;19.620;2022-07-10T04:58:13;7.20;;;2.80;;
69005;SDS011;56061;51.748;19.620;2022-07-10T05:00:40;10.40;;;4.90;;
69005;SDS011;56061;51.748;19.620;2022-07-10T05:03:07;13.10;;;7.40;;
69005;SDS011;56061;51.748;19.620;2022-07-10T05:05:33;6.50;;;3.10;;
69005;SDS011;56061;51.748;19.620;2022-07-10T05:08:00;7.10;;;3.30;;
69005;SDS011;56061;51.748;19.620;2022-07-10T05:10:27;7.40;;;3.30;;
69005;SDS011;56061;51.748;19.620;2022-07-10T05:12:54;8.00;;;3.20;;
69005;SDS011;56061;51.748;19.620;2022-07-10T05:15:31;6.20;;;3.10;;
69005;SDS011;56061;51.748;19.620;2022-07-10T05:17:57;14.00;;;6.40;;
69005;SDS011;56061;51.748;19.620;2022-07-10T05:20:24;9.80;;;4.80;;
69005;SDS011;56061;51.748;19.620;2022-07-10T05:22:50;10.70;;;5.60;;
69005;SDS011;56061;51.748;19.620;2022-07-10T05:25:17;8.60;;;4.00;;
69005;SDS011;56061;51.748;19.620;2022-07-10T05:27:49;11.70;;;6.90;;
69005;SDS011;56061;51.748;19.620;2022-07-10T05:30:15;9.70;;;4.10;;
69005;SDS011;56061;51.748;19.620;2022-07-10T05:32:45;8.00;;;3.50;;
69005;SDS011;56061;51.748;19.620;2022-07-10T05:35:14;7.80;;;3.40;;
69005;SDS011;56061;51.748;19.620;2022-07-10T05:37:41;8.00;;;4.00;;
69005;SDS011;56061;51.748;19.620;2022-07-10T05:40:10;7.90;;;3.90;;
69005;SDS011;56061;51.748;19.620;2022-07-10T05:42:37;8.90;;;3.90;;
69005;SDS011;56061;51.748;19.620;2022-07-10T05:45:03;7.90;;;3.60;;
69005;SDS011;56061;51.748;19.620;2022-07-10T05:47:32;5.50;;;2.70;;
69005;SDS011;56061;51.748;19.620;2022-07-10T05:50:03;6.80;;;2.90;;
69005;SDS011;56061;51.748;19.620;2022-07-10T05:52:30;6.80;;;2.90;;
69005;SDS011;56061;51.748;19.620;2022-07-10T05:54:57;8.60;;;3.60;;
69005;SDS011;56061;51.748;19.620;2022-07-10T05:57:24;5.00;;;2.50;;
69005;SDS011;56061;51.748;19.620;2022-07-10T05:59:51;5.90;;;2.60;;
69005;SDS011;56061;51.748;19.620;2022-07-10T06:02:18;7.20;;;2.70;;
69005;SDS011;56061;51.748;19.620;2022-07-10T06:04:50;6.20;;;2.70;;
69005;SDS011;56061;51.748;19.620;2022-07-10T06:07:17;6.50;;;2.90;;
69005;SDS011;56061;51.748;19.620;2022-07-10T06:09:44;6.80;;;2.60;;
69005;SDS011;56061;51.748;19.620;2022-07-10T06:12:11;5.60;;;2.10;;
69005;SDS011;56061;51.748;19.620;2022-07-10T06:14:38;5.60;;;2.50;;
69005;SDS011;56061;51.748;19.620;2022-07-10T06:17:04;9.60;;;3.50;;
69005;SDS011;56061;51.748;19.620;2022-07-10T06:19:31;4.60;;;2.30;;
69005;SDS011;56061;51.748;19.620;2022-07-10T06:21:58;5.90;;;2.00;;
69005;SDS011;56061;51.748;19.620;2022-07-10T06:24:43;4.70;;;2.10;;
69005;SDS011;56061;51.748;19.620;2022-07-10T06:27:10;5.80;;;2.10;;
69005;SDS011;56061;51.748;19.620;2022-07-10T06:29:37;7.80;;;1.90;;
69005;SDS011;56061;51.748;19.620;2022-07-10T06:32:05;6.60;;;2.20;;
69005;SDS011;56061;51.748;19.620;2022-07-10T06:34:32;4.90;;;2.00;;
69005;SDS011;56061;51.748;19.620;2022-07-10T06:36:58;6.30;;;2.00;;
69005;SDS011;56061;51.748;19.620;2022-07-10T06:39:26;5.80;;;2.20;;
69005;SDS011;56061;51.748;19.620;2022-07-10T06:41:52;5.80;;;1.40;;
69005;SDS011;56061;51.748;19.620;2022-07-10T06:44:19;6.60;;;1.70;;
69005;SDS011;56061;51.748;19.620;2022-07-10T06:46:46;6.70;;;1.40;;
69005;SDS011;56061;51.748;19.620;2022-07-10T06:49:32;5.60;;;1.40;;
69005;SDS011;56061;51.748;19.620;2022-07-10T06:51:59;5.20;;;1.50;;
69005;SDS011;56061;51.748;19.620;2022-07-10T06:54:36;4.10;;;1.40;;
69005;SDS011;56061;51.748;19.620;2022-07-10T06:57:03;3.50;;;1.60;;
69005;SDS011;56061;51.748;19.620;2022-07-10T06:59:30;5.00;;;1.40;;
69005;SDS011;56061;51.748;19.620;2022-07-10T07:01:56;5.30;;;1.20;;
69005;SDS011;56061;51.748;19.620;2022-07-10T07:04:23;5.00;;;1.30;;
69005;SDS011;56061;51.748;19.620;2022-07-10T07:06:49;3.80;;;1.10;;
69005;SDS011;56061;51.748;19.620;2022-07-10T07:09:16;6.00;;;1.40;;
69005;SDS011;56061;51.748;19.620;2022-07-10T07:11:43;5.20;;;1.10;;
69005;SDS011;56061;51.748;19.620;2022-07-10T07:14:09;3.20;;;1.10;;
69005;SDS011;56061;51.748;19.620;2022-07-10T07:16:36;7.40;;;2.70;;
69005;SDS011;56061;51.748;19.620;2022-07-10T07:19:09;6.80;;;1.70;;
69005;SDS011;56061;51.748;19.620;2022-07-10T07:21:44;7.90;;;2.60;;
69005;SDS011;56061;51.748;19.620;2022-07-10T07:24:29;7.70;;;1.50;;
69005;SDS011;56061;51.748;19.620;2022-07-10T07:26:55;7.20;;;1.50;;
69005;SDS011;56061;51.748;19.620;2022-07-10T07:29:22;7.30;;;1.10;;
69005;SDS011;56061;51.748;19.620;2022-07-10T07:31:48;5.00;;;1.20;;
69005;SDS011;56061;51.748;19.620;2022-07-10T07:34:15;2.50;;;0.90;;
69005;SDS011;56061;51.748;19.620;2022-07-10T07:36:41;4.50;;;1.10;;
69005;SDS011;56061;51.748;19.620;2022-07-10T07:39:08;3.00;;;1.00;;
69005;SDS011;56061;51.748;19.620;2022-07-10T07:41:34;4.80;;;1.00;;
69005;SDS011;56061;51.748;19.620;2022-07-10T07:44:01;4.50;;;1.20;;
69005;SDS011;56061;51.748;19.620;2022-07-10T07:46:27;3.50;;;1.20;;
69005;SDS011;56061;51.748;19.620;2022-07-10T07:48:54;3.40;;;1.10;;
69005;SDS011;56061;51.748;19.620;2022-07-10T07:51:21;4.80;;;1.00;;
69005;SDS011;56061;51.748;19.620;2022-07-10T07:53:47;5.10;;;1.30;;
69005;SDS011;56061;51.748;19.620;2022-07-10T07:56:14;3.40;;;1.20;;
69005;SDS011;56061;51.748;19.620;2022-07-10T07:58:42;5.50;;;1.10;;
69005;SDS011;56061;51.748;19.620;2022-07-10T08:01:08;5.70;;;1.20;;
69005;SDS011;56061;51.748;19.620;2022-07-10T08:03:35;6.10;;;1.20;;
69005;SDS011;56061;51.748;19.620;2022-07-10T08:06:21;4.90;;;1.60;;
69005;SDS011;56061;51.748;19.620;2022-07-10T08:08:48;5.40;;;1.20;;
69005;SDS011;56061;51.748;19.620;2022-07-10T08:11:15;3.40;;;1.10;;
69005;SDS011;56061;51.748;19.620;2022-07-10T08:13:41;4.60;;;1.60;;
69005;SDS011;56061;51.748;19.620;2022-07-10T08:16:09;5.20;;;1.40;;
69005;SDS011;56061;51.748;19.620;2022-07-10T08:18:36;4.90;;;1.20;;
69005;SDS011;56061;51.748;19.620;2022-07-10T08:21:03;4.50;;;1.20;;
69005;SDS011;56061;51.748;19.620;2022-07-10T08:23:30;5.90;;;1.30;;
69005;SDS011;56061;51.748;19.620;2022-07-10T08:25:57;4.40;;;1.50;;
69005;SDS011;56061;51.748;19.620;2022-07-10T08:28:23;5.40;;;1.20;;
69005;SDS011;56061;51.748;19.620;2022-07-10T08:30:50;4.30;;;1.10;;
69005;SDS011;56061;51.748;19.620;2022-07-10T08:33:17;4.80;;;1.10;;
69005;SDS011;56061;51.748;19.620;2022-07-10T08:35:43;8.10;;;1.10;;
69005;SDS011;56061;51.748;19.620;2022-07-10T08:38:10;3.20;;;1.10;;
69005;SDS011;56061;51.748;19.620;2022-07-10T08:40:37;4.00;;;0.90;;
69005;SDS011;56061;51.748;19.620;2022-07-10T08:43:04;3.90;;;0.90;;
69005;SDS011;56061;51.748;19.620;2022-07-10T08:45:33;2.10;;;0.80;;
69005;SDS011;56061;51.748;19.620;2022-07-10T08:48:04;2.70;;;1.00;;
69005;SDS011;56061;51.748;19.620;2022-07-10T08:50:33;2.70;;;0.80;;
69005;SDS011;56061;51.748;19.620;2022-07-10T08:53:12;4.00;;;0.90;;
69005;SDS011;56061;51.748;19.620;2022-07-10T08:55:42;3.20;;;0.70;;
69005;SDS011;56061;51.748;19.620;2022-07-10T08:58:10;3.70;;;0.70;;
69005;SDS011;56061;51.748;19.620;2022-07-10T09:00:39;5.50;;;0.80;;
69005;SDS011;56061;51.748;19.620;2022-07-10T09:03:07;1.70;;;0.80;;
69005;SDS011;56061;51.748;19.620;2022-07-10T09:05:34;2.60;;;0.90;;
69005;SDS011;56061;51.748;19.620;2022-07-10T09:08:02;3.00;;;0.90;;
69005;SDS011;56061;51.748;19.620;2022-07-10T09:10:28;2.60;;;0.80;;
69005;SDS011;56061;51.748;19.620;2022-07-10T09:12:56;5.10;;;1.10;;
69005;SDS011;56061;51.748;19.620;2022-07-10T09:15:27;2.90;;;0.90;;
69005;SDS011;56061;51.748;19.620;2022-07-10T09:18:02;2.30;;;0.80;;
69005;SDS011;56061;51.748;19.620;2022-07-10T09:20:39;2.30;;;0.70;;
69005;SDS011;56061;51.748;19.620;2022-07-10T09:23:17;3.10;;;0.90;;
69005;SDS011;56061;51.748;19.620;2022-07-10T09:25:47;3.90;;;0.80;;
69005;SDS011;56061;51.748;19.620;2022-07-10T09:28:17;2.80;;;0.70;;
69005;SDS011;56061;51.748;19.620;2022-07-10T09:30:46;1.80;;;0.60;;
69005;SDS011;56061;51.748;19.620;2022-07-10T09:33:22;2.30;;;0.70;;
69005;SDS011;56061;51.748;19.620;2022-07-10T09:46:39;3.40;;;0.90;;
69005;SDS011;56061;51.748;19.620;2022-07-10T09:49:11;4.60;;;0.90;;
69005;SDS011;56061;51.748;19.620;2022-07-10T09:51:40;5.00;;;1.20;;
69005;SDS011;56061;51.748;19.620;2022-07-10T09:54:14;4.50;;;0.80;;
69005;SDS011;56061;51.748;19.620;2022-07-10T09:56:45;3.90;;;1.10;;
69005;SDS011;56061;51.748;19.620;2022-07-10T09:59:15;2.60;;;1.00;;
69005;SDS011;56061;51.748;19.620;2022-07-10T10:01:51;2.30;;;1.00;;
69005;SDS011;56061;51.748;19.620;2022-07-10T10:04:22;4.50;;;1.00;;
69005;SDS011;56061;51.748;19.620;2022-07-10T10:06:56;1.60;;;0.60;;
69005;SDS011;56061;51.748;19.620;2022-07-10T10:09:38;2.60;;;0.90;;
69005;SDS011;56061;51.748;19.620;2022-07-10T10:12:17;3.00;;;0.90;;
69005;SDS011;56061;51.748;19.620;2022-07-10T10:14:53;3.80;;;0.80;;
69005;SDS011;56061;51.748;19.620;2022-07-10T10:17:21;3.40;;;0.80;;
69005;SDS011;56061;51.748;19.620;2022-07-10T10:19:51;2.90;;;0.90;;
69005;SDS011;56061;51.748;19.620;2022-07-10T10:22:42;3.20;;;0.80;;
69005;SDS011;56061;51.748;19.620;2022-07-10T10:25:11;3.00;;;0.80;;
69005;SDS011;56061;51.748;19.620;2022-07-10T10:27:40;2.10;;;0.80;;
69005;SDS011;56061;51.748;19.620;2022-07-10T10:30:07;3.80;;;0.80;;
69005;SDS011;56061;51.748;19.620;2022-07-10T10:32:39;2.50;;;0.80;;
69005;SDS011;56061;51.748;19.620;2022-07-10T10:35:06;1.80;;;0.70;;
69005;SDS011;56061;51.748;19.620;2022-07-10T10:37:38;2.70;;;0.90;;
69005;SDS011;56061;51.748;19.620;2022-07-10T10:40:08;3.60;;;1.00;;
69005;SDS011;56061;51.748;19.620;2022-07-10T10:42:41;3.60;;;1.00;;
69005;SDS011;56061;51.748;19.620;2022-07-10T10:48:06;3.60;;;0.80;;
69005;SDS011;56061;51.748;19.620;2022-07-10T10:50:58;2.60;;;0.80;;
69005;SDS011;56061;51.748;19.620;2022-07-10T10:53:28;4.20;;;1.00;;
69005;SDS011;56061;51.748;19.620;2022-07-10T10:58:28;3.80;;;1.00;;
69005;SDS011;56061;51.748;19.620;2022-07-10T11:06:39;3.90;;;0.90;;
69005;SDS011;56061;51.748;19.620;2022-07-10T11:14:30;3.20;;;0.70;;
69005;SDS011;56061;51.748;19.620;2022-07-10T11:16:59;2.50;;;0.70;;
69005;SDS011;56061;51.748;19.620;2022-07-10T11:19:30;1.90;;;0.70;;
69005;SDS011;56061;51.748;19.620;2022-07-10T11:24:49;3.00;;;0.70;;
69005;SDS011;56061;51.748;19.620;2022-07-10T11:28:22;4.10;;;1.20;;
69005;SDS011;56061;51.748;19.620;2022-07-10T11:30:50;3.00;;;0.90;;
69005;SDS011;56061;51.748;19.620;2022-07-10T11:33:18;1.80;;;1.00;;
69005;SDS011;56061;51.748;19.620;2022-07-10T11:35:48;3.40;;;1.40;;
69005;SDS011;56061;51.748;19.620;2022-07-10T11:38:24;5.20;;;1.10;;
69005;SDS011;56061;51.748;19.620;2022-07-10T11:40:52;4.00;;;1.10;;
69005;SDS011;56061;51.748;19.620;2022-07-10T11:43:21;6.10;;;1.60;;
69005;SDS011;56061;51.748;19.620;2022-07-10T11:45:51;4.90;;;1.30;;
69005;SDS011;56061;51.748;19.620;2022-07-10T11:48:21;4.10;;;1.30;;
69005;SDS011;56061;51.748;19.620;2022-07-10T11:50:49;5.20;;;1.20;;
69005;SDS011;56061;51.748;19.620;2022-07-10T11:53:26;5.40;;;1.10;;
69005;SDS011;56061;51.748;19.620;2022-07-10T11:55:53;5.00;;;1.50;;
69005;SDS011;56061;51.748;19.620;2022-07-10T11:58:20;4.00;;;1.10;;
69005;SDS011;56061;51.748;19.620;2022-07-10T12:01:01;4.80;;;1.60;;
69005;SDS011;56061;51.748;19.620;2022-07-10T12:03:32;5.80;;;1.20;;
69005;SDS011;56061;51.748;19.620;2022-07-10T12:06:03;3.30;;;1.10;;
69005;SDS011;56061;51.748;19.620;2022-07-10T12:08:47;3.60;;;1.30;;
69005;SDS011;56061;51.748;19.620;2022-07-10T12:11:15;3.40;;;1.00;;
69005;SDS011;56061;51.748;19.620;2022-07-10T12:13:45;2.50;;;1.20;;
69005;SDS011;56061;51.748;19.620;2022-07-10T12:16:13;3.50;;;1.00;;
69005;SDS011;56061;51.748;19.620;2022-07-10T12:18:41;5.30;;;1.20;;
69005;SDS011;56061;51.748;19.620;2022-07-10T12:21:10;5.70;;;1.20;;
69005;SDS011;56061;51.748;19.620;2022-07-10T12:23:38;7.00;;;1.30;;
69005;SDS011;56061;51.748;19.620;2022-07-10T12:26:08;2.60;;;1.10;;
69005;SDS011;56061;51.748;19.620;2022-07-10T12:28:56;4.70;;;1.10;;
69005;SDS011;56061;51.748;19.620;2022-07-10T12:31:24;3.60;;;1.20;;
69005;SDS011;56061;51.748;19.620;2022-07-10T12:33:57;3.90;;;0.90;;
69005;SDS011;56061;51.748;19.620;2022-07-10T12:36:47;3.80;;;1.00;;
69005;SDS011;56061;51.748;19.620;2022-07-10T12:39:22;3.30;;;1.20;;
69005;SDS011;56061;51.748;19.620;2022-07-10T12:42:01;2.80;;;1.00;;
69005;SDS011;56061;51.748;19.620;2022-07-10T12:44:32;2.20;;;0.90;;
69005;SDS011;56061;51.748;19.620;2022-07-10T12:47:02;2.50;;;1.00;;
69005;SDS011;56061;51.748;19.620;2022-07-10T12:52:38;2.80;;;1.00;;
69005;SDS011;56061;51.748;19.620;2022-07-10T12:55:12;3.30;;;0.90;;
69005;SDS011;56061;51.748;19.620;2022-07-10T12:57:52;2.70;;;0.70;;
69005;SDS011;56061;51.748;19.620;2022-07-10T13:00:24;2.50;;;0.80;;
69005;SDS011;56061;51.748;19.620;2022-07-10T13:02:58;2.80;;;1.00;;
69005;SDS011;56061;51.748;19.620;2022-07-10T13:05:27;3.30;;;0.80;;
69005;SDS011;56061;51.748;19.620;2022-07-10T13:08:24;2.60;;;0.90;;
69005;SDS011;56061;51.748;19.620;2022-07-10T13:10:57;1.60;;;0.90;;
69005;SDS011;56061;51.748;19.620;2022-07-10T13:13:25;2.50;;;0.70;;
69005;SDS011;56061;51.748;19.620;2022-07-10T13:15:52;1.80;;;0.70;;
69005;SDS011;56061;51.748;19.620;2022-07-10T13:18:26;2.00;;;0.60;;
69005;SDS011;56061;51.748;19.620;2022-07-10T13:20:55;3.50;;;0.70;;
69005;SDS011;56061;51.748;19.620;2022-07-10T13:23:27;2.30;;;0.80;;
69005;SDS011;56061;51.748;19.620;2022-07-10T13:25:55;2.30;;;0.70;;
69005;SDS011;56061;51.748;19.620;2022-07-10T13:28:22;1.60;;;0.60;;
69005;SDS011;56061;51.748;19.620;2022-07-10T13:30:50;1.70;;;0.70;;
69005;SDS011;56061;51.748;19.620;2022-07-10T13:33:17;2.20;;;0.80;;
69005;SDS011;56061;51.748;19.620;2022-07-10T13:35:44;2.60;;;0.80;;
69005;SDS011;56061;51.748;19.620;2022-07-10T13:38:11;2.30;;;0.70;;
69005;SDS011;56061;51.748;19.620;2022-07-10T13:40:42;2.20;;;0.80;;
69005;SDS011;56061;51.748;19.620;2022-07-10T13:43:10;1.80;;;0.70;;
69005;SDS011;56061;51.748;19.620;2022-07-10T13:45:39;4.20;;;0.80;;
69005;SDS011;56061;51.748;19.620;2022-07-10T13:48:10;3.80;;;0.90;;
69005;SDS011;56061;51.748;19.620;2022-07-10T13:50:39;2.30;;;1.00;;
69005;SDS011;56061;51.748;19.620;2022-07-10T13:53:07;3.10;;;0.80;;
69005;SDS011;56061;51.748;19.620;2022-07-10T13:55:35;2.00;;;0.70;;
69005;SDS011;56061;51.748;19.620;2022-07-10T13:58:02;2.20;;;0.70;;
69005;SDS011;56061;51.748;19.620;2022-07-10T14:00:28;3.40;;;0.90;;
69005;SDS011;56061;51.748;19.620;2022-07-10T14:02:55;2.40;;;0.70;;
69005;SDS011;56061;51.748;19.620;2022-07-10T14:05:24;2.80;;;0.80;;
69005;SDS011;56061;51.748;19.620;2022-07-10T14:07:50;3.00;;;0.90;;
69005;SDS011;56061;51.748;19.620;2022-07-10T14:10:18;2.80;;;0.80;;
69005;SDS011;56061;51.748;19.620;2022-07-10T14:12:45;3.40;;;0.90;;
69005;SDS011;56061;51.748;19.620;2022-07-10T14:15:12;3.90;;;0.90;;
69005;SDS011;56061;51.748;19.620;2022-07-10T14:17:38;2.10;;;0.80;;
69005;SDS011;56061;51.748;19.620;2022-07-10T14:20:05;2.10;;;0.80;;
69005;SDS011;56061;51.748;19.620;2022-07-10T14:22:33;4.20;;;1.00;;
69005;SDS011;56061;51.748;19.620;2022-07-10T14:24:59;2.30;;;0.80;;
69005;SDS011;56061;51.748;19.620;2022-07-10T14:27:26;2.60;;;1.10;;
69005;SDS011;56061;51.748;19.620;2022-07-10T14:29:55;3.10;;;1.00;;
69005;SDS011;56061;51.748;19.620;2022-07-10T14:32:22;2.40;;;1.00;;
69005;SDS011;56061;51.748;19.620;2022-07-10T14:34:48;3.80;;;1.40;;
69005;SDS011;56061;51.748;19.620;2022-07-10T14:37:15;2.80;;;1.10;;
69005;SDS011;56061;51.748;19.620;2022-07-10T14:39:42;8.30;;;2.30;;
69005;SDS011;56061;51.748;19.620;2022-07-10T14:42:08;11.20;;;3.90;;
69005;SDS011;56061;51.748;19.620;2022-07-10T14:44:38;11.60;;;4.30;;
69005;SDS011;56061;51.748;19.620;2022-07-10T14:47:05;11.30;;;3.70;;
69005;SDS011;56061;51.748;19.620;2022-07-10T14:49:31;6.00;;;1.10;;
69005;SDS011;56061;51.748;19.620;2022-07-10T14:51:58;3.10;;;0.90;;
69005;SDS011;56061;51.748;19.620;2022-07-10T14:54:24;5.80;;;1.10;;
69005;SDS011;56061;51.748;19.620;2022-07-10T14:56:52;3.80;;;1.00;;
69005;SDS011;56061;51.748;19.620;2022-07-10T14:59:18;2.60;;;1.10;;
69005;SDS011;56061;51.748;19.620;2022-07-10T15:01:45;3.20;;;1.20;;
69005;SDS011;56061;51.748;19.620;2022-07-10T15:04:12;3.80;;;1.30;;
69005;SDS011;56061;51.748;19.620;2022-07-10T15:06:38;2.70;;;1.10;;
69005;SDS011;56061;51.748;19.620;2022-07-10T15:09:05;3.00;;;1.40;;
69005;SDS011;56061;51.748;19.620;2022-07-10T15:11:31;2.90;;;1.00;;
69005;SDS011;56061;51.748;19.620;2022-07-10T15:14:00;2.60;;;1.00;;
69005;SDS011;56061;51.748;19.620;2022-07-10T15:16:28;3.30;;;1.00;;